createdAt,value
2023-02-16T00:01:10.209Z,0.75
2023-02-16T00:03:38.495Z,0.00
2023-02-16T00:06:07.010Z,0.00
2023-02-16T00:08:35.294Z,0.00
2023-02-16T00:11:22.176Z,0.20
2023-02-16T00:13:53.290Z,0.00
2023-02-16T00:16:22.798Z,0.00
2023-02-16T00:18:51.617Z,0.00
2023-02-16T00:21:20.146Z,0.00
2023-02-16T00:23:48.952Z,0.00
2023-02-16T00:26:19.879Z,0.00
2023-02-16T00:28:50.714Z,0.00
2023-02-16T00:31:20.843Z,0.00
2023-02-16T00:33:50.624Z,0.00
2023-02-16T00:36:21.690Z,0.00
2023-02-16T00:38:49.893Z,0.75
2023-02-16T00:41:34.805Z,0.50
2023-02-16T00:44:06.134Z,0.00
2023-02-16T00:46:34.693Z,0.00
2023-02-16T00:49:04.268Z,0.00
2023-02-16T00:51:32.522Z,0.40
2023-02-16T00:54:00.693Z,0.80
2023-02-16T00:56:30.675Z,0.00
2023-02-16T00:58:59.120Z,0.00
2023-02-16T01:01:29.769Z,0.00
2023-02-16T01:03:58.164Z,0.00
2023-02-16T01:06:43.647Z,0.00
2023-02-16T01:09:31.881Z,0.20
2023-02-16T01:12:02.164Z,0.00
2023-02-16T01:14:30.978Z,1.00
2023-02-16T01:17:01.082Z,0.20
2023-02-16T01:19:30.030Z,1.00
2023-02-16T01:21:58.175Z,0.00
2023-02-16T01:24:29.431Z,0.00
2023-02-16T01:26:57.612Z,0.00
2023-02-16T01:29:27.196Z,0.00
2023-02-16T01:31:55.646Z,0.60
2023-02-16T01:34:25.684Z,0.40
2023-02-16T01:36:54.034Z,0.20
2023-02-16T01:39:22.309Z,0.00
2023-02-16T01:42:03.435Z,0.00
2023-02-16T01:44:35.945Z,0.00
2023-02-16T01:47:07.428Z,0.00
2023-02-16T01:49:35.584Z,0.00
2023-02-16T01:52:06.745Z,0.00
2023-02-16T01:54:39.066Z,0.00
2023-02-16T01:57:13.267Z,0.00
2023-02-16T02:00:04.801Z,0.20
2023-02-16T02:02:42.965Z,0.00
2023-02-16T02:05:35.277Z,0.00
2023-02-16T02:08:07.660Z,0.00
2023-02-16T02:10:41.542Z,0.00
2023-02-16T02:13:13.019Z,0.00
2023-02-16T02:15:42.969Z,0.00
2023-02-16T02:18:11.351Z,0.00
2023-02-16T02:21:07.821Z,0.40
2023-02-16T02:23:44.627Z,0.00
2023-02-16T02:26:27.682Z,0.00
2023-02-16T02:29:04.232Z,0.00
2023-02-16T02:31:43.024Z,0.00
2023-02-16T02:34:16.117Z,0.20
2023-02-16T02:36:47.265Z,0.00
2023-02-16T02:39:22.064Z,0.00
2023-02-16T02:42:05.757Z,0.00
2023-02-16T02:44:57.719Z,0.00
2023-02-16T02:47:37.590Z,0.00
2023-02-16T02:50:20.715Z,0.00
2023-02-16T02:52:48.858Z,0.00
2023-02-16T02:55:34.745Z,0.00
2023-02-16T02:58:20.134Z,0.00
2023-02-16T03:00:51.938Z,0.00
2023-02-16T03:03:22.291Z,0.00
2023-02-16T03:05:52.622Z,0.00
2023-02-16T03:08:22.118Z,0.00
2023-02-16T03:11:09.994Z,0.40
2023-02-16T03:13:39.665Z,0.00
2023-02-16T03:16:11.569Z,0.00
2023-02-16T03:18:59.037Z,0.00
2023-02-16T03:21:46.367Z,0.00
2023-02-16T03:24:34.096Z,0.00
2023-02-16T03:27:20.633Z,0.00
2023-02-16T03:29:51.641Z,0.00
2023-02-16T03:32:21.691Z,0.00
2023-02-16T03:34:50.100Z,0.00
2023-02-16T03:37:18.323Z,0.00
2023-02-16T03:40:04.313Z,0.00
2023-02-16T03:42:32.677Z,0.00
2023-02-16T03:45:01.112Z,0.00
2023-02-16T03:47:31.547Z,0.00
2023-02-16T03:49:59.872Z,0.00
2023-02-16T03:52:28.122Z,0.00
2023-02-16T03:54:56.302Z,0.00
2023-02-16T03:57:24.446Z,0.00
2023-02-16T03:59:54.413Z,0.00
2023-02-16T04:02:22.949Z,1.00
2023-02-16T04:04:52.553Z,0.00
2023-02-16T04:07:20.781Z,0.00
2023-02-16T04:09:49.154Z,0.00
2023-02-16T04:12:34.869Z,0.00
2023-02-16T04:15:03.562Z,0.00
2023-02-16T04:17:32.349Z,0.00
2023-02-16T04:20:02.101Z,0.00
2023-02-16T04:22:31.867Z,0.00
2023-02-16T04:25:00.164Z,0.40
2023-02-16T04:27:28.391Z,0.00
2023-02-16T04:29:56.664Z,0.00
2023-02-16T04:32:24.890Z,0.00
2023-02-16T04:34:53.043Z,0.00
2023-02-16T04:37:22.632Z,1.00
2023-02-16T04:39:50.880Z,0.00
2023-02-16T04:42:19.106Z,1.00
2023-02-16T04:44:47.312Z,0.00
2023-02-16T04:47:15.940Z,0.00
2023-02-16T04:49:44.098Z,0.00
2023-02-16T04:52:13.102Z,0.00
2023-02-16T04:54:43.717Z,0.00
2023-02-16T04:57:12.300Z,0.00
2023-02-16T04:59:40.437Z,0.00
2023-02-16T05:02:08.752Z,0.00
2023-02-16T05:04:37.037Z,0.00
2023-02-16T05:07:05.366Z,0.00
2023-02-16T05:09:33.638Z,0.00
2023-02-16T05:12:20.481Z,0.00
2023-02-16T05:14:48.680Z,0.00
2023-02-16T05:17:17.757Z,0.00
2023-02-16T05:19:47.170Z,0.00
2023-02-16T05:22:15.830Z,0.00
2023-02-16T05:24:44.573Z,0.00
2023-02-16T05:27:15.272Z,0.20
2023-02-16T05:29:43.400Z,0.00
2023-02-16T05:32:11.580Z,0.00
2023-02-16T05:34:39.805Z,0.00
2023-02-16T05:37:08.058Z,0.00
2023-02-16T05:39:36.368Z,0.00
2023-02-16T05:42:04.861Z,0.00
2023-02-16T05:44:34.533Z,0.80
2023-02-16T05:47:02.745Z,0.00
2023-02-16T05:49:31.188Z,0.00
2023-02-16T05:52:07.688Z,0.00
2023-02-16T05:54:38.941Z,0.00
2023-02-16T05:57:07.285Z,0.00
2023-02-16T05:59:36.862Z,0.25
2023-02-16T06:02:05.154Z,0.00
2023-02-16T06:04:33.469Z,0.50
2023-02-16T06:07:01.666Z,0.00
2023-02-16T06:09:31.454Z,0.00
2023-02-16T06:11:59.631Z,0.00
2023-02-16T06:14:27.779Z,0.00
2023-02-16T06:16:58.936Z,0.00
2023-02-16T06:19:27.109Z,0.00
2023-02-16T06:21:55.263Z,0.00
2023-02-16T06:24:23.444Z,0.00
2023-02-16T06:26:53.175Z,0.00
2023-02-16T06:29:21.369Z,0.00
2023-02-16T06:31:49.699Z,0.25
2023-02-16T06:34:19.524Z,0.00
2023-02-16T06:36:47.741Z,0.00
2023-02-16T06:39:15.905Z,0.00
2023-02-16T06:41:44.127Z,0.00
2023-02-16T06:44:13.716Z,0.00
2023-02-16T06:46:42.483Z,0.00
2023-02-16T06:49:13.071Z,0.00
2023-02-16T06:51:43.165Z,0.00
2023-02-16T06:54:11.508Z,0.00
2023-02-16T06:56:40.276Z,0.00
2023-02-16T06:59:08.845Z,0.00
2023-02-16T07:01:37.110Z,0.00
2023-02-16T07:04:05.312Z,0.00
2023-02-16T07:06:33.505Z,0.00
2023-02-16T07:09:03.239Z,0.00
2023-02-16T07:11:31.652Z,0.00
2023-02-16T07:13:59.871Z,0.00
2023-02-16T07:16:28.117Z,0.00
2023-02-16T07:18:56.515Z,0.00
2023-02-16T07:21:25.984Z,0.00
2023-02-16T07:23:54.115Z,0.00
2023-02-16T07:26:23.872Z,0.00
2023-02-16T07:28:52.836Z,0.00
2023-02-16T07:31:21.122Z,0.00
2023-02-16T07:33:49.375Z,0.00
2023-02-16T07:36:17.538Z,0.00
2023-02-16T07:38:45.714Z,0.00
2023-02-16T07:41:14.081Z,0.00
2023-02-16T07:43:44.602Z,0.00
2023-02-16T07:46:12.875Z,0.00
2023-02-16T07:48:41.123Z,0.50
2023-02-16T07:51:09.510Z,0.00
2023-02-16T07:53:37.706Z,0.00
2023-02-16T07:56:06.323Z,0.00
2023-02-16T07:58:34.552Z,0.00
2023-02-16T08:01:09.809Z,0.00
2023-02-16T08:03:38.581Z,0.00
2023-02-16T08:06:14.198Z,0.00
2023-02-16T08:08:45.255Z,0.00
2023-02-16T08:11:14.719Z,0.00
2023-02-16T08:13:44.251Z,0.50
2023-02-16T08:16:15.325Z,0.00
2023-02-16T08:18:43.534Z,0.50
2023-02-16T08:21:17.392Z,0.00
2023-02-16T08:23:47.803Z,0.00
2023-02-16T08:26:17.291Z,0.00
2023-02-16T08:28:47.303Z,0.00
2023-02-16T08:31:19.152Z,0.00
2023-02-16T08:33:48.067Z,0.00
2023-02-16T08:36:22.236Z,0.00
2023-02-16T08:38:52.278Z,0.00
2023-02-16T08:41:23.108Z,0.00
2023-02-16T08:43:52.612Z,0.00
2023-02-16T08:46:23.205Z,0.00
2023-02-16T08:48:51.415Z,0.00
2023-02-16T08:51:21.423Z,0.00
2023-02-16T08:53:49.648Z,0.00
2023-02-16T08:56:17.901Z,0.00
2023-02-16T08:58:46.141Z,0.00
2023-02-16T09:01:16.672Z,0.00
2023-02-16T09:03:47.479Z,1.00
2023-02-16T09:06:17.289Z,0.80
2023-02-16T09:08:46.742Z,0.00
2023-02-16T09:11:15.994Z,0.25
2023-02-16T09:13:44.908Z,0.00
2023-02-16T09:16:14.545Z,0.25
2023-02-16T09:18:42.868Z,1.00
2023-02-16T09:21:15.200Z,1.00
2023-02-16T09:23:44.847Z,1.00
2023-02-16T09:26:39.493Z,0.25
2023-02-16T09:29:08.129Z,1.00
2023-02-16T09:31:37.644Z,0.50
2023-02-16T09:34:07.845Z,1.00
2023-02-16T09:36:39.096Z,3.00
2023-02-16T09:39:09.276Z,1.00
2023-02-16T09:41:42.798Z,0.00
2023-02-16T09:44:27.478Z,0.25
2023-02-16T09:46:56.564Z,2.50
2023-02-16T09:49:27.088Z,1.00
2023-02-16T09:52:03.935Z,1.50
2023-02-16T09:54:36.156Z,1.00
2023-02-16T09:57:08.471Z,0.00
2023-02-16T09:59:42.548Z,1.00
2023-02-16T10:02:21.806Z,1.00
2023-02-16T10:04:57.385Z,1.00
2023-02-16T10:07:32.741Z,1.50
2023-02-16T10:10:02.506Z,1.00
2023-02-16T10:12:34.828Z,0.25
2023-02-16T10:15:05.759Z,3.00
2023-02-16T10:17:39.569Z,3.00
2023-02-16T10:20:13.479Z,3.00
2023-02-16T10:22:45.189Z,0.00
2023-02-16T10:25:17.200Z,1.50
2023-02-16T10:27:47.043Z,3.00
2023-02-16T10:30:16.820Z,3.00
2023-02-16T10:32:52.166Z,1.50
2023-02-16T10:35:23.609Z,2.00
2023-02-16T10:37:59.408Z,2.50
2023-02-16T10:40:30.741Z,0.00
2023-02-16T10:43:02.174Z,1.00
2023-02-16T10:45:33.380Z,1.50
2023-02-16T10:48:02.095Z,0.50
2023-02-16T10:50:33.237Z,1.00
2023-02-16T10:53:06.113Z,0.75
2023-02-16T10:55:34.320Z,1.00
2023-02-16T10:58:04.595Z,2.00
2023-02-16T11:00:38.734Z,3.50
2023-02-16T11:03:11.744Z,3.25
2023-02-16T11:05:41.704Z,1.00
2023-02-16T11:08:15.910Z,0.50
2023-02-16T11:10:49.214Z,1.00
2023-02-16T11:13:28.348Z,2.00
2023-02-16T11:15:58.789Z,3.00
2023-02-16T11:18:31.509Z,1.00
2023-02-16T11:20:59.860Z,3.00
2023-02-16T11:23:31.935Z,1.00
2023-02-16T11:26:04.036Z,1.00
2023-02-16T11:28:34.496Z,3.50
2023-02-16T11:31:06.888Z,4.50
2023-02-16T11:33:41.553Z,4.00
2023-02-16T11:36:26.544Z,3.50
2023-02-16T11:39:01.446Z,1.80
2023-02-16T11:41:31.022Z,4.00
2023-02-16T11:43:59.527Z,1.00
2023-02-16T11:46:29.117Z,1.00
2023-02-16T11:48:57.717Z,4.00
2023-02-16T11:51:35.019Z,3.20
2023-02-16T11:54:08.295Z,3.00
2023-02-16T11:56:38.975Z,3.00
2023-02-16T11:59:19.286Z,2.60
2023-02-16T12:02:05.112Z,1.00
2023-02-16T12:04:40.940Z,1.80
2023-02-16T12:07:15.727Z,2.20
2023-02-16T12:09:50.685Z,3.80
2023-02-16T12:12:20.123Z,4.00
2023-02-16T12:14:57.681Z,6.00
2023-02-16T12:17:32.885Z,1.00
2023-02-16T12:20:03.615Z,5.20
2023-02-16T12:22:35.054Z,6.00
2023-02-16T12:25:22.663Z,4.50
2023-02-16T12:27:56.112Z,6.00
2023-02-16T12:30:34.190Z,5.60
2023-02-16T12:33:08.303Z,6.00
2023-02-16T12:35:46.890Z,2.00
2023-02-16T12:38:20.750Z,4.50
2023-02-16T12:40:53.298Z,5.00
2023-02-16T12:43:32.406Z,5.50
2023-02-16T12:46:03.584Z,3.00
2023-02-16T12:48:40.346Z,3.20
2023-02-16T12:51:16.697Z,6.00
2023-02-16T12:53:48.363Z,6.00
2023-02-16T12:56:20.103Z,5.20
2023-02-16T12:58:53.650Z,3.60
2023-02-16T13:01:23.718Z,5.20
2023-02-16T13:03:54.620Z,4.00
2023-02-16T13:06:25.197Z,3.00
2023-02-16T13:08:58.465Z,4.00
2023-02-16T13:11:29.677Z,5.20
2023-02-16T13:14:02.530Z,5.20
2023-02-16T13:16:37.957Z,5.20
2023-02-16T13:19:06.294Z,5.20
2023-02-16T13:21:51.378Z,4.00
2023-02-16T13:24:26.552Z,5.60
2023-02-16T13:27:02.478Z,7.40
2023-02-16T13:29:52.610Z,4.40
2023-02-16T13:32:39.618Z,1.00
2023-02-16T13:35:31.242Z,4.00
2023-02-16T13:38:02.327Z,4.00
2023-02-16T13:40:45.438Z,3.00
2023-02-16T13:43:19.555Z,3.00
2023-02-16T13:45:54.142Z,4.00
2023-02-16T13:48:24.611Z,6.80
2023-02-16T13:51:00.644Z,4.00
2023-02-16T13:53:33.566Z,4.20
2023-02-16T13:56:23.541Z,3.00
2023-02-16T13:58:52.502Z,5.60
2023-02-16T14:01:39.135Z,4.00
2023-02-16T14:04:12.043Z,3.00
2023-02-16T14:06:41.760Z,6.00
2023-02-16T14:09:28.373Z,4.40
2023-02-16T14:12:04.298Z,6.20
2023-02-16T14:14:35.333Z,3.00
2023-02-16T14:17:18.770Z,6.00
2023-02-16T14:19:51.413Z,5.60
2023-02-16T14:22:20.306Z,4.00
2023-02-16T14:24:53.902Z,4.80
2023-02-16T14:27:42.926Z,4.00
2023-02-16T14:30:17.851Z,3.60
2023-02-16T14:32:50.837Z,6.20
2023-02-16T14:35:21.867Z,7.00
2023-02-16T14:37:55.981Z,7.20
2023-02-16T14:40:25.022Z,1.00
2023-02-16T14:42:55.067Z,6.60
2023-02-16T14:45:38.225Z,7.00
2023-02-16T14:48:15.214Z,6.20
2023-02-16T14:50:54.426Z,6.60
2023-02-16T14:53:45.766Z,6.00
2023-02-16T14:56:25.671Z,1.00
2023-02-16T14:58:59.030Z,3.40
2023-02-16T15:01:28.294Z,6.80
2023-02-16T15:03:58.639Z,3.80
2023-02-16T15:06:30.859Z,7.00
2023-02-16T15:09:00.833Z,3.60
2023-02-16T15:11:34.612Z,4.40
2023-02-16T15:14:03.995Z,5.20
2023-02-16T15:16:33.779Z,4.00
2023-02-16T15:19:07.910Z,3.40
2023-02-16T15:21:36.194Z,6.00
2023-02-16T15:24:06.126Z,6.00
2023-02-16T15:26:36.402Z,8.60
2023-02-16T15:29:13.728Z,7.20
2023-02-16T15:31:42.029Z,4.00
2023-02-16T15:34:14.902Z,9.00
2023-02-16T15:36:45.799Z,8.60
2023-02-16T15:39:15.561Z,6.60
2023-02-16T15:41:46.400Z,8.60
2023-02-16T15:44:28.522Z,7.00
2023-02-16T15:47:07.267Z,4.00
2023-02-16T15:49:39.123Z,7.00
2023-02-16T15:52:13.330Z,10.00
2023-02-16T15:54:42.214Z,4.40
2023-02-16T15:57:16.497Z,7.40
2023-02-16T15:59:47.107Z,9.00
2023-02-16T16:02:16.756Z,7.40
2023-02-16T16:04:48.526Z,6.20
2023-02-16T16:07:17.752Z,6.20
2023-02-16T16:09:47.065Z,8.20
2023-02-16T16:12:17.526Z,4.40
2023-02-16T16:14:51.392Z,7.00
2023-02-16T16:17:22.863Z,9.00
2023-02-16T16:20:32.196Z,10.80
2023-02-16T16:23:04.794Z,4.80
2023-02-16T16:25:39.001Z,13.00
2023-02-16T16:28:08.324Z,9.60
2023-02-16T16:30:37.341Z,4.80
2023-02-16T16:33:06.920Z,7.80
2023-02-16T16:35:36.520Z,7.40
2023-02-16T16:38:06.584Z,7.20
2023-02-16T16:40:35.543Z,5.60
2023-02-16T16:43:08.349Z,9.40
2023-02-16T16:45:37.707Z,11.20
2023-02-16T16:48:09.760Z,10.40
2023-02-16T16:50:40.082Z,1.00
2023-02-16T16:53:26.815Z,3.00
2023-02-16T16:55:56.578Z,7.00
2023-02-16T16:58:24.912Z,10.00
2023-02-16T17:00:57.684Z,0.80
2023-02-16T17:03:30.525Z,4.80
2023-02-16T17:05:59.481Z,6.40
2023-02-16T17:08:28.730Z,8.60
2023-02-16T17:10:58.571Z,10.40
2023-02-16T17:13:27.563Z,9.40
2023-02-16T17:15:57.715Z,12.60
2023-02-16T17:18:28.239Z,12.20
2023-02-16T17:20:56.989Z,6.00
2023-02-16T17:23:26.546Z,1.40
2023-02-16T17:25:54.695Z,9.00
2023-02-16T17:28:24.467Z,4.40
2023-02-16T17:30:52.807Z,11.60
2023-02-16T17:33:21.104Z,10.00
2023-02-16T17:35:49.434Z,3.00
2023-02-16T17:38:19.891Z,9.20
2023-02-16T17:40:48.457Z,10.00
2023-02-16T17:43:16.851Z,6.60
2023-02-16T17:45:49.579Z,9.20
2023-02-16T17:48:20.629Z,8.20
2023-02-16T17:50:49.511Z,3.80
2023-02-16T17:53:19.029Z,12.80
2023-02-16T17:55:47.973Z,10.00
2023-02-16T17:58:18.105Z,11.60
2023-02-16T18:00:48.252Z,12.00
2023-02-16T18:03:16.578Z,10.80
2023-02-16T18:05:45.152Z,12.80
2023-02-16T18:08:13.964Z,12.40
2023-02-16T18:10:47.131Z,15.00
2023-02-16T18:13:16.006Z,6.00
2023-02-16T18:15:47.579Z,8.60
2023-02-16T18:18:18.424Z,6.20
2023-02-16T18:20:47.603Z,14.20
2023-02-16T18:23:19.188Z,12.60
2023-02-16T18:25:47.378Z,6.20
2023-02-16T18:28:18.509Z,11.20
2023-02-16T18:30:48.038Z,8.20
2023-02-16T18:33:18.512Z,15.20
2023-02-16T18:35:47.359Z,15.00
2023-02-16T18:38:15.828Z,8.60
2023-02-16T18:40:44.599Z,13.00
2023-02-16T18:43:12.953Z,11.20
2023-02-16T18:45:42.141Z,9.20
2023-02-16T18:48:10.338Z,8.20
2023-02-16T18:50:42.103Z,9.60
2023-02-16T18:53:10.535Z,11.20
2023-02-16T18:55:38.669Z,9.80
2023-02-16T18:58:08.417Z,10.40
2023-02-16T19:00:39.678Z,7.80
2023-02-16T19:03:08.743Z,10.80
2023-02-16T19:05:37.441Z,9.80
2023-02-16T19:08:07.974Z,6.80
2023-02-16T19:10:36.275Z,15.00
2023-02-16T19:13:06.018Z,12.40
2023-02-16T19:15:34.790Z,8.60
2023-02-16T19:18:03.511Z,13.00
2023-02-16T19:20:33.657Z,12.60
2023-02-16T19:23:02.115Z,11.20
2023-02-16T19:25:31.912Z,10.40
2023-02-16T19:28:03.142Z,12.00
2023-02-16T19:30:32.742Z,12.80
2023-02-16T19:33:01.113Z,6.00
2023-02-16T19:35:29.892Z,10.40
2023-02-16T19:37:58.069Z,10.80
2023-02-16T19:40:27.205Z,7.40
2023-02-16T19:42:56.984Z,12.40
2023-02-16T19:45:25.378Z,12.40
2023-02-16T19:47:53.965Z,12.40
2023-02-16T19:50:22.643Z,18.00
2023-02-16T19:52:51.152Z,7.40
2023-02-16T19:55:19.686Z,12.00
2023-02-16T19:57:47.843Z,12.20
2023-02-16T20:00:17.890Z,9.00
2023-02-16T20:02:46.222Z,10.80
2023-02-16T20:05:14.915Z,15.60
2023-02-16T20:07:46.021Z,11.60
2023-02-16T20:10:15.890Z,9.00
2023-02-16T20:12:44.226Z,5.40
2023-02-16T20:15:15.532Z,12.60
2023-02-16T20:17:45.819Z,11.20
2023-02-16T20:20:16.410Z,6.80
2023-02-16T20:22:44.669Z,12.00
2023-02-16T20:25:12.948Z,8.60
2023-02-16T20:27:41.184Z,5.20
2023-02-16T20:30:16.777Z,11.20
2023-02-16T20:32:47.809Z,13.00
2023-02-16T20:35:16.443Z,12.60
2023-02-16T20:37:44.643Z,10.00
2023-02-16T20:40:13.643Z,9.80
2023-02-16T20:42:41.811Z,12.00
2023-02-16T20:45:10.166Z,7.80
2023-02-16T20:47:38.352Z,12.00
2023-02-16T20:50:10.642Z,10.40
2023-02-16T20:52:40.081Z,9.40
2023-02-16T20:55:08.955Z,9.00
2023-02-16T20:57:37.608Z,9.40
2023-02-16T21:00:07.032Z,10.00
2023-02-16T21:02:35.221Z,10.00
2023-02-16T21:05:04.042Z,8.20
2023-02-16T21:07:33.739Z,9.20
2023-02-16T21:10:01.911Z,10.20
2023-02-16T21:12:31.411Z,9.00
2023-02-16T21:14:59.534Z,6.60
2023-02-16T21:17:27.928Z,10.00
2023-02-16T21:19:56.411Z,11.20
2023-02-16T21:22:24.929Z,13.40
2023-02-16T21:24:54.726Z,11.20
2023-02-16T21:27:22.970Z,8.60
2023-02-16T21:29:51.238Z,5.20
2023-02-16T21:32:19.473Z,6.00
2023-02-16T21:34:47.882Z,7.00
2023-02-16T21:37:16.228Z,9.60
2023-02-16T21:40:02.082Z,9.20
2023-02-16T21:42:34.088Z,7.00
2023-02-16T21:45:22.141Z,5.60
2023-02-16T21:48:07.813Z,10.40
2023-02-16T21:50:36.814Z,8.60
2023-02-16T21:53:05.233Z,9.80
2023-02-16T21:55:50.803Z,10.40
2023-02-16T21:58:21.098Z,9.20
2023-02-16T22:00:50.962Z,11.60
2023-02-16T22:03:19.336Z,7.00
2023-02-16T22:05:47.597Z,9.20
2023-02-16T22:08:16.122Z,8.20
2023-02-16T22:10:44.284Z,9.40
2023-02-16T22:13:12.578Z,9.00
2023-02-16T22:15:42.161Z,11.00
2023-02-16T22:18:10.367Z,10.00
2023-02-16T22:20:38.656Z,3.80
2023-02-16T22:23:06.754Z,11.60
2023-02-16T22:25:35.192Z,10.00
2023-02-16T22:28:03.335Z,13.00
2023-02-16T22:30:31.515Z,10.80
2023-02-16T22:33:01.122Z,9.20
2023-02-16T22:35:29.269Z,9.00
2023-02-16T22:37:57.385Z,10.00
2023-02-16T22:40:25.568Z,11.60
2023-02-16T22:42:53.854Z,9.00
2023-02-16T22:45:21.971Z,10.20
2023-02-16T22:47:50.198Z,9.60
2023-02-16T22:50:19.906Z,7.80
2023-02-16T22:52:48.053Z,9.80
2023-02-16T22:55:16.201Z,8.60
2023-02-16T22:57:44.416Z,9.20
2023-02-16T23:00:15.134Z,10.80
2023-02-16T23:02:43.310Z,9.80
2023-02-16T23:05:11.598Z,10.40
2023-02-16T23:07:41.137Z,12.00
2023-02-16T23:10:09.468Z,9.60
2023-02-16T23:12:37.630Z,10.40
2023-02-16T23:15:05.982Z,11.20
2023-02-16T23:17:34.232Z,10.00
2023-02-16T23:20:02.341Z,9.00
2023-02-16T23:22:31.732Z,5.60
2023-02-16T23:25:18.756Z,11.60
2023-02-16T23:27:47.049Z,9.60
2023-02-16T23:30:15.366Z,6.80
2023-02-16T23:32:43.601Z,12.40
2023-02-16T23:35:11.799Z,10.00
2023-02-16T23:37:39.946Z,10.00
2023-02-16T23:40:10.365Z,12.00
2023-02-16T23:42:38.435Z,12.00
2023-02-16T23:45:06.699Z,15.20
2023-02-16T23:47:34.717Z,9.20
2023-02-16T23:50:03.027Z,9.40
2023-02-16T23:52:31.750Z,10.00
2023-02-16T23:55:00.050Z,8.20
2023-02-16T23:57:29.759Z,10.40
2023-02-16T23:59:59.924Z,12.40
